San Jose, California
Current Conditions -  °F | °C
As of 1:53 AM on Sunday 21 Dec 2014 (Local Time) from KSJC Reporting Station
Overcast Overcast  
Wind Chill: 14°   Ceiling: 2500
Heat Index: 14°   Visibility: 10mi
Dew Point: 12°   Wind: 3mph
Humidity: 87%   Direction: 130°SE
Pressure: 30.27"   Gusts: NA
Location:  37.35°N, 121.9°W
Report Text: KSJC 210953Z AUTO 13003KT 10SM OVC025 14/12 A3027 RMK AO2 SLP249 T01390117
Loading
Personal Weather Stations






























Interactive Weather Map New forecast layout! Learn more

10-Day Weather Forecast

Advertisements
Track Severe Weather on mobile